Time;durP1;ratioP1;P1;durP2;ratioP2;P2;SDS_P1;SDS_P2;PMS_P1;PMS_P2;Temp;Humidity;BMP_temperature;BMP_pressure;BME280_temperature;BME280_humidity;BME280_pressure;Samples;Min_cycle;Max_cycle;Signal;HPM_P1;HPM_P2
2022/12/02 00:01:01;;;;;;;57.40;35.80;;;2.50;99.90;;;;;;5112280;28;20217;-79
2022/12/02 00:03:30;;;;;;;59.80;34.80;;;2.40;99.90;;;;;;5114961;27;20187;-78
2022/12/02 00:05:58;;;;;;;52.70;32.90;;;2.40;99.90;;;;;;5133172;27;20207;-76
2022/12/02 00:08:31;;;;;;;57.63;34.20;;;2.30;99.90;;;;;;5132577;27;20198;-78
2022/12/02 00:11:02;;;;;;;54.97;34.10;;;2.40;99.90;;;;;;5132807;28;20225;-76
2022/12/02 00:13:40;;;;;;;58.23;33.70;;;2.40;99.90;;;;;;5132915;28;20215;-75
2022/12/02 00:16:17;;;;;;;57.47;34.77;;;2.30;99.90;;;;;;5130918;28;20203;-79
2022/12/02 00:18:45;;;;;;;57.30;35.20;;;2.20;99.90;;;;;;5112399;28;20214;-81
2022/12/02 00:21:13;;;;;;;60.93;35.37;;;2.20;99.90;;;;;;5112017;28;20217;-81
2022/12/02 00:23:43;;;;;;;58.67;34.73;;;2.40;99.90;;;;;;5111917;28;20202;-78
2022/12/02 00:26:11;;;;;;;56.10;34.67;;;2.30;99.90;;;;;;5111584;28;20210;-77
2022/12/02 00:28:39;;;;;;;64.93;38.03;;;2.20;99.90;;;;;;5112314;28;20494;-77
2022/12/02 00:31:07;;;;;;;64.43;36.37;;;2.20;99.90;;;;;;5112316;28;20234;-80
2022/12/02 00:33:36;;;;;;;65.30;36.93;;;2.20;99.90;;;;;;5122744;28;20240;-77
2022/12/02 00:36:05;;;;;;;58.70;36.17;;;2.30;99.90;;;;;;5132479;28;20693;-74
2022/12/02 00:38:33;;;;;;;63.27;37.27;;;2.30;99.90;;;;;;5132590;28;20227;-81
2022/12/02 00:41:02;;;;;;;61.90;36.27;;;2.30;99.90;;;;;;5133284;27;20209;-78
2022/12/02 00:46:31;;;;;;;57.60;35.33;;;2.30;99.90;;;;;;5136487;27;20216;-74
2022/12/02 00:49:00;;;;;;;65.00;37.23;;;2.30;99.90;;;;;;5137086;27;20193;-78
2022/12/02 00:51:28;;;;;;;65.57;36.83;;;2.20;99.90;;;;;;5124587;27;20224;-78
2022/12/02 00:53:56;;;;;;;64.60;35.93;;;2.30;99.90;;;;;;5115715;28;20222;-73
2022/12/02 00:56:26;;;;;;;67.17;36.97;;;2.20;99.90;;;;;;5116113;28;20209;-79
2022/12/02 00:58:54;;;;;;;71.90;38.43;;;2.20;99.90;;;;;;5116144;28;20221;-77
2022/12/02 01:01:22;;;;;;;71.33;37.00;;;2.10;99.90;;;;;;5116061;27;20213;-78
2022/12/02 01:03:51;;;;;;;71.30;39.17;;;2.10;99.90;;;;;;5133436;27;20597;-78
2022/12/02 01:06:19;;;;;;;75.10;39.33;;;2.20;99.90;;;;;;5136937;27;20575;-79
2022/12/02 01:08:48;;;;;;;68.13;37.73;;;2.10;99.90;;;;;;5145119;27;20213;-77
2022/12/02 01:11:16;;;;;;;72.70;39.50;;;2.20;99.90;;;;;;5117674;28;20212;-78
2022/12/02 01:13:45;;;;;;;65.90;37.93;;;2.20;99.90;;;;;;5115515;28;20206;-76
2022/12/02 01:16:13;;;;;;;71.90;38.23;;;2.20;99.90;;;;;;5116271;28;20337;-80
2022/12/02 01:18:42;;;;;;;70.43;36.90;;;2.20;99.90;;;;;;5115650;28;20235;-77
2022/12/02 01:21:10;;;;;;;66.03;36.87;;;2.20;99.90;;;;;;5116091;28;20205;-75
2022/12/02 01:23:38;;;;;;;64.07;36.57;;;2.20;99.90;;;;;;5115834;28;20210;-77
2022/12/02 01:26:06;;;;;;;65.07;35.90;;;2.20;99.90;;;;;;5115992;28;20209;-77
2022/12/02 01:28:34;;;;;;;64.63;36.67;;;2.20;99.90;;;;;;5117604;28;20212;-78
2022/12/02 01:31:04;;;;;;;65.50;36.90;;;2.10;99.90;;;;;;5116622;28;20229;-78
2022/12/02 01:33:32;;;;;;;67.93;36.23;;;2.20;99.90;;;;;;5115637;28;20552;-78
2022/12/02 01:36:00;;;;;;;67.67;36.83;;;2.20;99.90;;;;;;5114894;27;20206;-78
2022/12/02 01:38:31;;;;;;;69.77;37.73;;;2.20;99.90;;;;;;5115441;28;20276;-78
2022/12/02 01:40:59;;;;;;;67.73;37.33;;;2.20;99.90;;;;;;5115526;28;20214;-77
2022/12/02 01:43:30;;;;;;;67.93;36.93;;;2.20;99.90;;;;;;5114801;27;20206;-78
2022/12/02 01:45:59;;;;;;;69.43;36.93;;;2.20;99.90;;;;;;5115278;28;20415;-76
2022/12/02 01:48:30;;;;;;;65.23;36.30;;;2.20;99.90;;;;;;5117851;28;20242;-75
2022/12/02 01:50:58;;;;;;;68.80;36.87;;;2.20;99.90;;;;;;5118723;28;20193;-75
2022/12/02 01:53:26;;;;;;;66.60;37.13;;;2.20;99.90;;;;;;5113494;28;20343;-75
2022/12/02 01:55:54;;;;;;;67.23;35.83;;;2.20;99.90;;;;;;5115364;28;20218;-77
2022/12/02 01:58:26;;;;;;;62.23;36.27;;;2.30;99.90;;;;;;5127240;28;20599;-79
2022/12/02 02:00:55;;;;;;;67.27;36.17;;;2.30;99.90;;;;;;5119016;27;20679;-75
2022/12/02 02:03:24;;;;;;;63.93;34.80;;;2.30;99.90;;;;;;5134512;27;20559;-79
2022/12/02 02:05:54;;;;;;;60.07;35.80;;;2.30;99.90;;;;;;5134901;27;20213;-78
2022/12/02 02:08:23;;;;;;;58.37;34.50;;;2.30;99.90;;;;;;5135433;27;20212;-76
2022/12/02 02:10:52;;;;;;;60.93;35.30;;;2.30;99.90;;;;;;5119939;27;20206;-79
2022/12/02 02:13:20;;;;;;;59.57;36.63;;;2.30;99.90;;;;;;5114340;28;20218;-77
2022/12/02 02:15:48;;;;;;;56.97;34.13;;;2.30;99.90;;;;;;5114710;28;20210;-77
2022/12/02 02:18:16;;;;;;;60.53;35.03;;;2.30;99.90;;;;;;5114391;27;20210;-78
2022/12/02 02:20:44;;;;;;;62.03;35.83;;;2.30;99.90;;;;;;5114762;28;20279;-75
2022/12/02 02:23:25;;;;;;;58.63;33.93;;;2.30;99.90;;;;;;5114204;28;20214;-78
2022/12/02 02:25:56;;;;;;;57.90;34.57;;;2.40;99.90;;;;;;5113990;27;20221;-76
2022/12/02 02:28:25;;;;;;;56.30;33.90;;;2.40;99.90;;;;;;5114550;28;20210;-78
2022/12/02 02:30:56;;;;;;;56.23;33.80;;;2.40;99.90;;;;;;5114165;28;20222;-77
2022/12/02 02:33:27;;;;;;;55.60;33.17;;;2.40;99.90;;;;;;5113806;28;20209;-76
2022/12/02 02:35:55;;;;;;;61.90;35.53;;;2.40;99.90;;;;;;5114029;27;20202;-79
2022/12/02 02:38:27;;;;;;;56.20;35.10;;;2.40;99.90;;;;;;5114095;28;20237;-79
2022/12/02 02:40:57;;;;;;;64.87;35.63;;;2.40;99.90;;;;;;5114026;28;20210;-77
2022/12/02 02:43:27;;;;;;;59.20;34.40;;;2.50;99.90;;;;;;5113829;28;20210;-81
2022/12/02 02:45:56;;;;;;;57.30;33.13;;;2.50;99.90;;;;;;5114901;27;20220;-75
2022/12/02 02:48:26;;;;;;;56.10;33.33;;;2.50;99.90;;;;;;5113962;28;20249;-77
2022/12/02 02:50:55;;;;;;;57.83;34.37;;;2.50;99.90;;;;;;5113839;28;20229;-77
2022/12/02 02:53:26;;;;;;;59.97;35.53;;;2.40;99.90;;;;;;5113255;28;20706;-76
2022/12/02 02:55:55;;;;;;;57.43;33.63;;;2.40;99.90;;;;;;5113382;27;20206;-76
2022/12/02 02:58:25;;;;;;;56.47;33.60;;;2.40;99.90;;;;;;5113623;28;20210;-77
2022/12/02 03:00:58;;;;;;;53.07;33.20;;;2.40;99.90;;;;;;5129985;27;20593;-76
2022/12/02 03:03:29;;;;;;;55.90;33.97;;;2.40;99.90;;;;;;5124358;27;20230;-76
2022/12/02 03:05:59;;;;;;;60.23;34.07;;;2.40;99.90;;;;;;5114122;28;20573;-79
2022/12/02 03:08:30;;;;;;;53.00;33.00;;;2.30;99.90;;;;;;5113881;28;20282;-76
2022/12/02 03:11:02;;;;;;;55.77;34.93;;;2.40;99.90;;;;;;5113776;28;20442;-79
2022/12/02 03:13:33;;;;;;;58.33;33.93;;;2.30;99.90;;;;;;5112914;27;20691;-79
2022/12/02 03:16:04;;;;;;;54.03;33.73;;;2.30;99.90;;;;;;5113192;28;20206;-78
2022/12/02 03:18:33;;;;;;;57.53;34.70;;;2.40;99.90;;;;;;5113092;28;20194;-78
2022/12/02 03:21:01;;;;;;;54.97;33.17;;;2.40;99.90;;;;;;5128650;27;20225;-76
2022/12/02 03:23:32;;;;;;;58.30;34.00;;;2.40;99.90;;;;;;5133643;27;20208;-75
2022/12/02 03:26:02;;;;;;;52.93;32.77;;;2.40;99.90;;;;;;5133944;27;20202;-76
2022/12/02 03:28:33;;;;;;;56.33;33.00;;;2.40;99.90;;;;;;5127204;27;20210;-77
2022/12/02 03:31:01;;;;;;;53.03;33.03;;;2.40;99.90;;;;;;5113425;28;20241;-78
2022/12/02 03:33:29;;;;;;;54.00;33.33;;;2.40;99.90;;;;;;5112540;28;20198;-80
2022/12/02 03:35:57;;;;;;;56.73;33.90;;;2.50;99.90;;;;;;5113084;28;20229;-76
2022/12/02 03:38:26;;;;;;;55.20;34.00;;;2.40;99.90;;;;;;5112685;28;20660;-76
2022/12/02 03:40:56;;;;;;;50.43;32.40;;;2.40;99.90;;;;;;5112899;28;20225;-80
2022/12/02 03:43:24;;;;;;;53.87;33.53;;;2.50;99.90;;;;;;5112316;28;20206;-77
2022/12/02 03:45:52;;;;;;;54.53;32.87;;;2.50;99.90;;;;;;5112980;27;20213;-81
2022/12/02 03:48:21;;;;;;;53.23;33.93;;;2.40;99.90;;;;;;5112889;28;20572;-80
2022/12/02 03:50:51;;;;;;;52.93;32.60;;;2.50;99.90;;;;;;5112832;28;20202;-78
2022/12/02 03:53:21;;;;;;;55.07;32.57;;;2.50;99.90;;;;;;5112274;28;20217;-76
2022/12/02 03:55:50;;;;;;;51.83;32.33;;;2.40;99.90;;;;;;5112161;28;20663;-78
2022/12/02 03:58:19;;;;;;;54.77;34.17;;;2.40;99.90;;;;;;5118992;27;20443;-76
2022/12/02 04:00:47;;;;;;;56.03;33.70;;;2.50;99.90;;;;;;5132957;27;20240;-80
2022/12/02 04:03:15;;;;;;;52.10;32.87;;;2.40;99.90;;;;;;5114011;27;20206;-78
2022/12/02 04:05:44;;;;;;;52.23;32.83;;;2.50;99.90;;;;;;5112307;28;20202;-79
2022/12/02 04:08:16;;;;;;;53.87;32.60;;;2.40;99.90;;;;;;5112694;28;20198;-78
2022/12/02 04:10:44;;;;;;;51.47;32.10;;;2.40;99.90;;;;;;5120569;28;20277;-75
2022/12/02 04:13:12;;;;;;;54.20;31.93;;;2.40;99.90;;;;;;5132887;28;20216;-79
2022/12/02 04:15:42;;;;;;;54.77;33.23;;;2.40;99.90;;;;;;5133839;27;20219;-80
2022/12/02 04:18:10;;;;;;;52.10;31.57;;;2.40;99.90;;;;;;5139850;27;20215;-77
2022/12/02 04:20:38;;;;;;;54.73;32.70;;;2.30;99.90;;;;;;5130627;27;20225;-79
2022/12/02 04:23:06;;;;;;;52.20;32.37;;;2.30;99.90;;;;;;5119148;28;20206;-75
2022/12/02 04:25:34;;;;;;;54.63;32.50;;;2.30;99.90;;;;;;5118976;28;20209;-78
2022/12/02 04:28:03;;;;;;;54.70;32.33;;;2.20;99.90;;;;;;5119618;27;20206;-81
2022/12/02 04:30:34;;;;;;;49.53;30.50;;;2.20;99.90;;;;;;5118921;28;20205;-81
2022/12/02 04:33:04;;;;;;;52.07;32.17;;;2.30;99.90;;;;;;5118664;28;20571;-81
2022/12/02 04:35:34;;;;;;;53.23;32.23;;;2.30;99.90;;;;;;5119028;28;20643;-77
2022/12/02 04:38:02;;;;;;;53.97;33.67;;;2.30;99.90;;;;;;5119141;27;20234;-79
2022/12/02 04:40:38;;;;;;;53.90;32.87;;;2.30;99.90;;;;;;5119163;28;20212;-80
2022/12/02 04:43:06;;;;;;;56.07;33.07;;;2.30;99.90;;;;;;5119033;28;20225;-80
2022/12/02 04:45:37;;;;;;;55.53;33.17;;;2.30;99.90;;;;;;5118847;28;20668;-79
2022/12/02 04:48:09;;;;;;;55.17;33.80;;;2.20;99.90;;;;;;5110635;28;20212;-79
2022/12/02 04:50:37;;;;;;;55.63;33.23;;;2.30;99.90;;;;;;5119110;28;20197;-78
2022/12/02 04:53:05;;;;;;;58.30;35.17;;;2.20;99.90;;;;;;5110338;28;20595;-79
2022/12/02 04:55:33;;;;;;;54.80;33.40;;;2.20;99.90;;;;;;5118376;27;20603;-80
2022/12/02 04:58:01;;;;;;;55.30;33.67;;;2.30;99.90;;;;;;5135244;27;20390;-74
2022/12/02 05:00:29;;;;;;;56.73;34.40;;;2.20;99.90;;;;;;5139260;27;20216;-77
2022/12/02 05:02:58;;;;;;;54.60;33.70;;;2.20;99.90;;;;;;5138759;27;20744;-77
2022/12/02 05:05:28;;;;;;;61.30;35.47;;;2.20;99.90;;;;;;5136347;27;20233;-78
2022/12/02 05:08:00;;;;;;;60.13;35.13;;;2.10;99.90;;;;;;5139044;27;20209;-77
2022/12/02 05:10:28;;;;;;;59.63;36.13;;;2.10;99.90;;;;;;5139506;27;20349;-77
2022/12/02 05:12:56;;;;;;;61.07;35.90;;;2.10;99.90;;;;;;5138914;27;20204;-80
2022/12/02 05:15:24;;;;;;;60.93;34.67;;;2.10;99.90;;;;;;5137804;27;20655;-79
2022/12/02 05:17:52;;;;;;;62.07;35.80;;;2.10;99.90;;;;;;5139419;27;20209;-80
2022/12/02 05:20:23;;;;;;;62.30;37.83;;;2.10;99.90;;;;;;5139548;27;20209;-76
2022/12/02 05:22:53;;;;;;;62.17;37.67;;;2.10;99.90;;;;;;5140252;27;20356;-76
2022/12/02 05:25:20;;;;;;;61.87;37.23;;;2.00;99.90;;;;;;5119633;28;20611;-77
2022/12/02 05:27:49;;;;;;;65.37;36.60;;;2.00;99.90;;;;;;5117797;28;20206;-78
2022/12/02 05:30:17;;;;;;;67.43;38.30;;;2.10;99.90;;;;;;5123013;28;20210;-79
2022/12/02 05:32:46;;;;;;;65.93;38.10;;;2.00;99.90;;;;;;5123580;28;20696;-76
2022/12/02 05:35:14;;;;;;;62.13;36.50;;;2.00;99.90;;;;;;5125875;28;20202;-74
2022/12/02 05:37:42;;;;;;;63.70;37.23;;;2.10;99.90;;;;;;5136065;28;20258;-76
2022/12/02 05:40:11;;;;;;;70.23;38.17;;;2.20;99.90;;;;;;5137143;28;20220;-76
2022/12/02 05:42:40;;;;;;;66.47;37.30;;;2.10;99.90;;;;;;5129875;28;20590;-76
2022/12/02 05:45:15;;;;;;;63.63;37.67;;;2.10;99.90;;;;;;5130113;28;20295;-73
2022/12/02 05:47:46;;;;;;;66.50;37.43;;;2.20;99.90;;;;;;5124153;28;20652;-77
2022/12/02 05:50:15;;;;;;;65.23;37.73;;;2.10;99.90;;;;;;5116578;28;20198;-75
2022/12/02 05:52:43;;;;;;;64.87;37.67;;;2.10;99.90;;;;;;5116299;28;20218;-80
2022/12/02 05:55:15;;;;;;;66.43;38.80;;;2.10;99.90;;;;;;5120373;27;20212;-74
2022/12/02 05:57:44;;;;;;;62.57;36.43;;;2.10;99.90;;;;;;5137041;27;20563;-79
2022/12/02 06:00:16;;;;;;;68.13;38.30;;;2.10;99.90;;;;;;5119587;27;20218;-78
2022/12/02 06:02:47;;;;;;;68.67;38.53;;;2.10;99.90;;;;;;5115184;28;20390;-73
2022/12/02 06:05:21;;;;;;;61.53;36.70;;;2.10;99.90;;;;;;5114931;28;20734;-74
2022/12/02 06:07:53;;;;;;;65.13;37.60;;;2.20;99.90;;;;;;5114738;28;20199;-76
2022/12/02 06:10:28;;;;;;;62.70;37.30;;;2.10;99.90;;;;;;5114847;28;20191;-80
2022/12/02 06:13:00;;;;;;;55.83;36.80;;;2.10;99.90;;;;;;5114716;28;20192;-73
2022/12/02 06:15:35;;;;;;;61.47;36.30;;;2.10;99.90;;;;;;5114526;27;20205;-79
2022/12/02 06:18:03;;;;;;;57.43;35.53;;;2.10;99.90;;;;;;5115145;28;20189;-78
2022/12/02 06:20:33;;;;;;;57.80;35.53;;;2.10;99.90;;;;;;5114455;28;20667;-74
2022/12/02 06:23:02;;;;;;;60.83;36.37;;;2.10;99.90;;;;;;5114052;28;20320;-77
2022/12/02 06:25:32;;;;;;;58.80;35.33;;;2.10;99.90;;;;;;5114044;28;20206;-75
2022/12/02 06:28:14;;;;;;;58.93;35.20;;;2.10;99.90;;;;;;5115450;28;20202;-75
2022/12/02 06:30:42;;;;;;;55.87;33.10;;;2.10;99.90;;;;;;5114938;28;20198;-79
2022/12/02 06:33:22;;;;;;;57.60;35.27;;;2.10;99.90;;;;;;5114213;28;20202;-80
2022/12/02 06:35:54;;;;;;;59.23;32.83;;;2.10;99.90;;;;;;5114247;27;20212;-80
2022/12/02 06:38:29;;;;;;;53.07;32.27;;;2.00;99.90;;;;;;5114297;28;20214;-77
2022/12/02 06:41:00;;;;;;;54.10;33.53;;;2.00;99.90;;;;;;5114298;28;20213;-77
2022/12/02 06:43:31;;;;;;;52.57;33.13;;;2.00;99.90;;;;;;5134994;27;20297;-74
2022/12/02 06:46:04;;;;;;;53.60;32.87;;;2.00;99.90;;;;;;5137829;27;20228;-74
2022/12/02 06:48:35;;;;;;;55.37;32.13;;;2.00;99.90;;;;;;5139117;27;20628;-78
2022/12/02 06:51:15;;;;;;;53.17;32.47;;;1.90;99.90;;;;;;5134472;27;20210;-76
2022/12/02 06:53:45;;;;;;;54.37;31.73;;;1.90;99.90;;;;;;5119870;27;20232;-75
2022/12/02 06:56:24;;;;;;;52.50;31.73;;;1.90;99.90;;;;;;5138098;27;20217;-76
2022/12/02 06:58:59;;;;;;;55.97;32.03;;;1.90;99.90;;;;;;5127719;27;20203;-74
2022/12/02 07:01:33;;;;;;;51.33;31.73;;;1.90;99.90;;;;;;5117757;28;20195;-74
2022/12/02 07:04:05;;;;;;;54.47;32.00;;;1.80;99.90;;;;;;5117386;28;20181;-75
2022/12/02 07:06:37;;;;;;;53.07;32.20;;;1.80;99.90;;;;;;5117018;28;20220;-76
2022/12/02 07:09:14;;;;;;;59.60;33.83;;;1.80;99.90;;;;;;5116529;27;20221;-74
2022/12/02 07:11:52;;;;;;;63.37;35.13;;;1.80;99.90;;;;;;5116711;28;20630;-75
2022/12/02 07:14:32;;;;;;;65.37;35.10;;;1.80;99.90;;;;;;5115959;28;20213;-77
2022/12/02 07:17:03;;;;;;;69.93;37.07;;;1.80;99.90;;;;;;5117009;27;20206;-75
2022/12/02 07:19:41;;;;;;;67.07;36.37;;;1.70;99.90;;;;;;5116882;28;20195;-77
2022/12/02 07:22:19;;;;;;;62.93;35.30;;;1.60;99.90;;;;;;5117525;28;20255;-75
2022/12/02 07:24:55;;;;;;;64.40;35.13;;;1.70;99.90;;;;;;5125243;27;20515;-73
2022/12/02 07:27:28;;;;;;;67.40;35.90;;;1.70;99.90;;;;;;5137583;27;20223;-76
2022/12/02 07:30:03;;;;;;;62.10;34.40;;;1.60;99.90;;;;;;5137742;27;20189;-75
2022/12/02 07:32:31;;;;;;;63.23;34.97;;;1.70;99.90;;;;;;5134993;27;20221;-77
2022/12/02 07:35:00;;;;;;;64.93;35.47;;;1.80;99.90;;;;;;5116440;28;20206;-76
2022/12/02 07:37:29;;;;;;;62.80;35.67;;;1.80;99.90;;;;;;5116011;28;20202;-75
2022/12/02 07:39:58;;;;;;;60.57;35.23;;;1.90;99.90;;;;;;5117030;28;20236;-75
2022/12/02 07:42:28;;;;;;;58.17;34.73;;;1.80;99.90;;;;;;5137478;27;20225;-76
2022/12/02 07:44:57;;;;;;;64.03;35.73;;;1.70;99.90;;;;;;5137609;27;20496;-74
2022/12/02 07:47:27;;;;;;;55.30;33.23;;;1.90;99.90;;;;;;5137686;27;20265;-77
2022/12/02 07:49:58;;;;;;;58.43;33.87;;;1.90;99.90;;;;;;5135196;27;20223;-75
2022/12/02 07:52:27;;;;;;;60.93;35.90;;;1.90;99.90;;;;;;5133914;27;20212;-76
2022/12/02 07:54:55;;;;;;;59.30;35.33;;;1.90;99.90;;;;;;5136371;27;20186;-79
2022/12/02 07:57:24;;;;;;;59.77;35.50;;;2.00;99.90;;;;;;5135447;27;20206;-77
2022/12/02 07:59:53;;;;;;;60.57;34.80;;;1.80;99.90;;;;;;5116574;28;20297;-74
2022/12/02 08:02:23;;;;;;;63.83;36.47;;;1.90;99.90;;;;;;5116533;28;20209;-75
2022/12/02 08:04:52;;;;;;;58.83;34.33;;;1.90;99.90;;;;;;5117047;28;20237;-75
2022/12/02 08:07:23;;;;;;;58.57;35.67;;;1.90;99.90;;;;;;5121394;27;20277;-77
2022/12/02 08:09:51;;;;;;;60.67;35.03;;;1.90;99.90;;;;;;5135518;27;20225;-80
2022/12/02 08:12:20;;;;;;;60.47;34.87;;;2.00;99.90;;;;;;5135431;27;20582;-74
2022/12/02 08:14:48;;;;;;;55.50;33.47;;;2.00;99.90;;;;;;5134846;28;20551;-77
2022/12/02 08:17:18;;;;;;;56.47;35.00;;;2.00;99.90;;;;;;5134463;28;20397;-78
2022/12/02 08:19:46;;;;;;;57.00;33.60;;;2.00;99.90;;;;;;5136743;28;20217;-76
2022/12/02 08:22:15;;;;;;;54.37;34.27;;;2.10;99.90;;;;;;5139036;28;20300;-78
2022/12/02 08:24:44;;;;;;;59.70;34.07;;;2.10;99.90;;;;;;5126105;28;20210;-77
2022/12/02 08:27:13;;;;;;;55.73;34.70;;;2.10;99.90;;;;;;5118068;28;20214;-76
2022/12/02 08:29:41;;;;;;;57.67;34.20;;;2.10;99.90;;;;;;5117437;28;20635;-77
2022/12/02 08:32:10;;;;;;;58.17;34.93;;;2.00;99.90;;;;;;5116570;28;20691;-77
2022/12/02 08:34:40;;;;;;;56.93;34.57;;;2.00;99.90;;;;;;5116579;28;20206;-76
2022/12/02 08:37:09;;;;;;;58.40;35.03;;;1.90;99.90;;;;;;5115653;28;20675;-75
2022/12/02 08:39:38;;;;;;;60.57;35.17;;;1.90;99.90;;;;;;5116284;28;20270;-74
2022/12/02 08:42:07;;;;;;;60.60;35.00;;;1.80;99.90;;;;;;5114283;28;20236;-78
2022/12/02 08:44:35;;;;;;;57.27;34.37;;;1.80;99.90;;;;;;5113825;28;20236;-73
2022/12/02 08:47:04;;;;;;;61.10;35.53;;;1.80;99.90;;;;;;5113753;28;20213;-75
2022/12/02 08:49:32;;;;;;;58.10;35.07;;;1.90;99.90;;;;;;5123840;28;20201;-78
2022/12/02 08:52:02;;;;;;;57.47;34.57;;;2.10;99.90;;;;;;5133275;28;20205;-77
2022/12/02 08:54:30;;;;;;;62.37;35.03;;;2.00;99.90;;;;;;5119873;28;20230;-78
2022/12/02 08:56:59;;;;;;;61.27;36.33;;;2.00;99.90;;;;;;5118035;28;20202;-78
2022/12/02 08:59:28;;;;;;;57.90;34.23;;;2.00;99.90;;;;;;5136121;28;20201;-78
2022/12/02 09:01:56;;;;;;;62.77;35.53;;;2.10;99.90;;;;;;5136134;27;20582;-76
2022/12/02 09:04:25;;;;;;;54.27;34.27;;;2.10;99.90;;;;;;5141678;27;20308;-76
2022/12/02 09:06:53;;;;;;;58.97;35.43;;;2.20;99.90;;;;;;5126647;27;20214;-77
2022/12/02 09:09:26;;;;;;;54.63;34.70;;;2.30;99.90;;;;;;5120025;28;20230;-81
2022/12/02 09:11:55;;;;;;;52.67;32.67;;;2.30;99.90;;;;;;5119237;28;20263;-76
2022/12/02 09:14:23;;;;;;;53.83;33.60;;;2.20;99.90;;;;;;5119093;28;20228;-80
2022/12/02 09:16:52;;;;;;;56.03;33.90;;;2.20;99.90;;;;;;5118931;27;20206;-75
2022/12/02 09:19:21;;;;;;;54.07;33.57;;;2.20;99.90;;;;;;5119060;28;20198;-78
2022/12/02 09:21:49;;;;;;;55.53;34.30;;;2.20;99.90;;;;;;5118814;28;20217;-74
2022/12/02 09:24:18;;;;;;;52.70;33.53;;;2.20;99.90;;;;;;5124067;28;20228;-75
2022/12/02 09:26:48;;;;;;;54.57;33.47;;;2.20;99.90;;;;;;5119262;28;20485;-78
2022/12/02 09:29:17;;;;;;;56.80;34.40;;;2.20;99.90;;;;;;5117829;28;20210;-78
2022/12/02 09:31:46;;;;;;;59.50;35.00;;;2.20;99.90;;;;;;5117026;28;20232;-78
2022/12/02 09:34:14;;;;;;;53.70;33.33;;;2.30;99.90;;;;;;5118295;27;20206;-77
2022/12/02 09:36:43;;;;;;;53.67;33.73;;;2.30;99.90;;;;;;5117638;28;20224;-74
2022/12/02 09:39:11;;;;;;;51.13;32.77;;;2.30;99.90;;;;;;5118751;28;20301;-75
2022/12/02 09:41:40;;;;;;;56.33;33.10;;;2.30;99.90;;;;;;5118391;27;20311;-75
2022/12/02 09:44:10;;;;;;;56.13;33.60;;;2.40;99.90;;;;;;5118329;28;20218;-76
2022/12/02 09:46:39;;;;;;;55.17;34.23;;;2.50;99.90;;;;;;5119658;28;20190;-75
2022/12/02 09:49:07;;;;;;;52.40;32.97;;;2.50;99.90;;;;;;5119263;28;20206;-77
2022/12/02 09:51:36;;;;;;;49.50;31.73;;;2.60;99.90;;;;;;5119225;28;20198;-77
2022/12/02 09:54:05;;;;;;;51.10;31.50;;;2.50;99.90;;;;;;5117582;28;20224;-79
2022/12/02 09:56:34;;;;;;;51.97;32.80;;;2.50;99.90;;;;;;5117198;28;20210;-79
2022/12/02 09:59:10;;;;;;;49.63;33.43;;;2.40;99.90;;;;;;5117394;28;20214;-80
2022/12/02 10:01:44;;;;;;;51.87;33.17;;;2.50;99.90;;;;;;5117429;28;20255;-76
2022/12/02 10:04:15;;;;;;;50.10;31.40;;;2.50;99.90;;;;;;5116567;28;20221;-78
2022/12/02 10:06:44;;;;;;;45.50;29.53;;;2.60;99.90;;;;;;5132699;27;20217;-78
2022/12/02 10:09:17;;;;;;;45.97;28.53;;;2.60;99.90;;;;;;5139987;27;20209;-78
2022/12/02 10:11:45;;;;;;;44.33;29.20;;;2.60;99.90;;;;;;5139440;27;20299;-80
2022/12/02 10:14:16;;;;;;;46.23;29.80;;;2.50;99.90;;;;;;5140684;27;20206;-76
2022/12/02 10:16:46;;;;;;;43.80;28.63;;;2.60;99.90;;;;;;5122248;27;20260;-75
2022/12/02 10:19:18;;;;;;;42.80;28.77;;;2.60;99.90;;;;;;5117125;28;20206;-75
2022/12/02 10:21:47;;;;;;;47.53;30.47;;;2.60;99.90;;;;;;5116769;28;20201;-77
2022/12/02 10:24:36;;;;;;;48.17;31.13;;;2.60;99.90;;;;;;5115896;27;20210;-77
2022/12/02 10:27:05;;;;;;;47.40;30.47;;;2.70;99.90;;;;;;5116082;28;20187;-77
2022/12/02 10:29:34;;;;;;;46.47;29.47;;;2.60;99.90;;;;;;5116604;28;20210;-76
2022/12/02 10:32:06;;;;;;;45.03;28.73;;;2.70;99.90;;;;;;5119338;28;20265;-77
2022/12/02 10:34:35;;;;;;;49.47;31.30;;;2.80;99.90;;;;;;5144143;27;20293;-77
2022/12/02 10:37:23;;;;;;;44.63;30.63;;;2.90;99.90;;;;;;5151141;27;20213;-75
2022/12/02 10:40:08;;;;;;;45.93;29.77;;;2.90;99.90;;;;;;5151738;27;20194;-75
2022/12/02 10:42:37;;;;;;;48.00;30.30;;;2.80;99.90;;;;;;5141714;27;20206;-78
2022/12/02 10:45:18;;;;;;;44.57;29.70;;;2.80;99.90;;;;;;5122634;28;20222;-74
2022/12/02 10:47:50;;;;;;;46.00;29.37;;;2.90;99.90;;;;;;5117818;27;20190;-79
2022/12/02 10:50:21;;;;;;;47.77;31.00;;;2.80;99.90;;;;;;5137737;27;20280;-79
2022/12/02 10:52:53;;;;;;;49.43;31.83;;;2.90;99.90;;;;;;5113178;27;20224;-77
2022/12/02 10:55:28;;;;;;;47.20;31.00;;;2.90;99.90;;;;;;5116877;28;20209;-77
2022/12/02 10:57:56;;;;;;;45.07;30.60;;;2.90;99.90;;;;;;5116662;28;20234;-78
2022/12/02 11:00:26;;;;;;;44.60;29.13;;;2.90;99.90;;;;;;5117045;27;20589;-76
2022/12/02 11:02:58;;;;;;;44.87;29.73;;;3.00;99.90;;;;;;5116402;28;20206;-75
2022/12/02 11:05:31;;;;;;;46.63;29.97;;;3.00;99.90;;;;;;5115788;28;20719;-79
2022/12/02 11:08:02;;;;;;;46.37;29.93;;;2.90;99.90;;;;;;5115972;28;20238;-80
2022/12/02 11:10:35;;;;;;;48.30;30.47;;;2.90;99.90;;;;;;5116527;28;20199;-80
2022/12/02 11:13:35;;;;;;;48.43;30.50;;;2.90;99.90;;;;;;5116520;28;20195;-80
2022/12/02 11:16:55;;;;;;;45.73;30.53;;;2.80;99.90;;;;;;5092955;28;20214;-77
2022/12/02 11:19:45;;;;;;;48.00;29.67;;;2.80;99.90;;;;;;5115327;28;20210;-79
2022/12/02 11:22:52;;;;;;;48.93;30.77;;;2.70;99.90;;;;;;5114879;28;20209;-76
2022/12/02 11:26:00;;;;;;;48.33;30.73;;;2.70;99.90;;;;;;5112786;28;20222;-79
2022/12/02 11:28:38;;;;;;;48.80;31.53;;;2.70;99.90;;;;;;5112240;28;20206;-79
2022/12/02 11:31:27;;;;;;;47.93;32.03;;;2.70;99.90;;;;;;5114912;28;20304;-80
2022/12/02 11:34:30;;;;;;;51.73;32.93;;;2.80;99.90;;;;;;5114573;28;20285;-78
2022/12/02 11:37:44;;;;;;;46.30;30.10;;;2.80;99.90;;;;;;5115042;28;20209;-77
2022/12/02 11:41:01;;;;;;;52.97;31.90;;;2.80;99.90;;;;;;5115403;28;20766;-81
2022/12/02 11:44:17;;;;;;;50.47;30.23;;;2.80;99.90;;;;;;5092332;28;20211;-77
2022/12/02 11:46:48;;;;;;;51.73;31.17;;;2.80;99.90;;;;;;5057087;28;20202;-76
2022/12/02 11:49:35;;;;;;;51.10;32.07;;;2.70;99.90;;;;;;5132605;27;20219;-77
2022/12/02 11:52:18;;;;;;;51.53;32.93;;;2.60;99.90;;;;;;5126229;27;20305;-74
2022/12/02 11:55:05;;;;;;;49.73;31.77;;;2.70;99.90;;;;;;5115554;28;20206;-75
2022/12/02 11:57:44;;;;;;;50.77;31.70;;;2.60;99.90;;;;;;5113969;28;20308;-76
2022/12/02 12:00:25;;;;;;;52.13;32.40;;;2.60;99.90;;;;;;5114735;27;20259;-78
2022/12/02 12:03:11;;;;;;;52.50;32.67;;;2.70;99.90;;;;;;5114323;28;20271;-78
2022/12/02 12:05:40;;;;;;;53.93;33.70;;;2.70;99.90;;;;;;5113629;28;20256;-77
2022/12/02 12:08:09;;;;;;;54.27;33.20;;;2.60;99.90;;;;;;5113992;27;20644;-76
2022/12/02 12:10:40;;;;;;;51.00;32.87;;;2.70;99.90;;;;;;5117380;28;20624;-79
2022/12/02 12:13:21;;;;;;;57.00;35.67;;;2.60;99.90;;;;;;5114498;28;20199;-79
2022/12/02 12:15:55;;;;;;;55.90;34.43;;;2.50;99.90;;;;;;5114518;28;20202;-77
2022/12/02 12:18:44;;;;;;;56.23;34.13;;;2.70;99.90;;;;;;5114433;28;20627;-80
2022/12/02 12:21:14;;;;;;;57.73;35.90;;;2.70;99.90;;;;;;5114224;28;20221;-79
2022/12/02 12:23:45;;;;;;;61.73;36.57;;;2.70;99.90;;;;;;5113790;28;20529;-74
2022/12/02 12:26:33;;;;;;;57.67;37.00;;;2.70;99.90;;;;;;5113404;28;20220;-76
2022/12/02 12:29:03;;;;;;;60.90;37.27;;;2.70;99.90;;;;;;5113477;28;20194;-78
2022/12/02 12:31:31;;;;;;;59.47;36.33;;;2.70;99.90;;;;;;5116613;28;20301;-78
2022/12/02 12:34:06;;;;;;;55.70;34.60;;;2.80;99.90;;;;;;5121041;28;20209;-75
2022/12/02 12:36:35;;;;;;;64.50;37.27;;;2.70;99.90;;;;;;5114455;28;20199;-81
2022/12/02 12:39:04;;;;;;;60.93;36.33;;;2.70;99.90;;;;;;5117646;28;20303;-78
2022/12/02 12:41:36;;;;;;;62.40;36.57;;;2.80;99.90;;;;;;5117176;28;20594;-78
2022/12/02 12:44:25;;;;;;;61.67;36.40;;;2.90;99.90;;;;;;5117123;28;20199;-76
2022/12/02 12:46:58;;;;;;;60.90;36.20;;;3.00;99.90;;;;;;5135824;27;20216;-78
2022/12/02 12:49:27;;;;;;;62.33;37.20;;;2.80;99.90;;;;;;5139147;27;20217;-76
2022/12/02 12:51:56;;;;;;;61.83;36.10;;;2.80;99.90;;;;;;5119817;27;20213;-77
2022/12/02 12:54:25;;;;;;;58.10;34.40;;;2.90;99.90;;;;;;5118584;28;20202;-77
2022/12/02 12:56:55;;;;;;;59.03;34.30;;;2.80;99.90;;;;;;5118673;28;20520;-75
2022/12/02 12:59:26;;;;;;;58.43;35.23;;;2.90;99.90;;;;;;5125887;27;20217;-78
2022/12/02 13:01:54;;;;;;;55.40;34.10;;;2.90;99.90;;;;;;5138996;27;20193;-78